createdAt,value
2023-03-03T00:01:30.418Z,18.30
2023-03-03T00:03:57.382Z,12.10
2023-03-03T00:06:24.778Z,14.68
2023-03-03T00:08:51.709Z,12.02
2023-03-03T00:11:18.254Z,15.07
2023-03-03T00:13:55.870Z,17.25
2023-03-03T00:16:35.218Z,14.27
2023-03-03T00:19:02.179Z,14.90
2023-03-03T00:21:32.249Z,12.95
2023-03-03T00:24:35.146Z,15.32
2023-03-03T00:27:16.563Z,11.98
2023-03-03T00:29:49.229Z,15.68
2023-03-03T00:32:15.887Z,18.65
2023-03-03T00:34:43.562Z,17.48
2023-03-03T00:37:25.338Z,16.50
2023-03-03T00:39:51.969Z,13.77
2023-03-03T00:42:19.346Z,13.60
2023-03-03T00:44:55.983Z,14.80
2023-03-03T00:47:38.000Z,15.02
2023-03-03T00:50:07.680Z,11.95
2023-03-03T00:52:40.668Z,16.45
2023-03-03T00:55:08.626Z,16.80
2023-03-03T00:57:35.179Z,17.73
2023-03-03T01:00:04.668Z,12.13
2023-03-03T01:02:32.026Z,17.30
2023-03-03T01:04:58.586Z,19.33
2023-03-03T01:07:25.551Z,15.85
2023-03-03T01:09:52.173Z,13.77
2023-03-03T01:12:18.666Z,18.30
2023-03-03T01:14:45.879Z,16.38
2023-03-03T01:17:12.591Z,15.85
2023-03-03T01:19:39.472Z,15.15
2023-03-03T01:22:06.306Z,16.80
2023-03-03T01:24:33.487Z,12.68
2023-03-03T01:27:00.147Z,14.40
2023-03-03T01:29:26.885Z,18.45
2023-03-03T01:31:53.748Z,15.45
2023-03-03T01:34:20.616Z,15.00
2023-03-03T01:36:47.163Z,18.60
2023-03-03T01:39:13.854Z,11.43
2023-03-03T01:41:40.532Z,13.32
2023-03-03T01:44:11.644Z,13.63
2023-03-03T01:47:13.114Z,17.83
2023-03-03T01:49:51.164Z,14.07
2023-03-03T01:52:27.757Z,14.07
2023-03-03T01:54:59.113Z,20.00
2023-03-03T01:57:35.508Z,14.40
2023-03-03T02:00:05.083Z,15.75
2023-03-03T02:02:41.215Z,16.55
2023-03-03T02:05:09.064Z,13.98
2023-03-03T02:07:36.455Z,14.57
2023-03-03T02:10:16.775Z,14.98
2023-03-03T02:12:54.692Z,16.90
2023-03-03T02:15:28.130Z,19.52
2023-03-03T02:18:04.789Z,17.67
2023-03-03T02:20:52.251Z,11.25
2023-03-03T02:23:29.344Z,11.82
2023-03-03T02:25:58.788Z,13.32
2023-03-03T02:28:31.368Z,22.98
2023-03-03T02:31:02.036Z,19.77
2023-03-03T02:33:29.634Z,16.45
2023-03-03T02:35:56.661Z,14.32
2023-03-03T02:38:32.311Z,16.77
2023-03-03T02:41:11.902Z,19.75
2023-03-03T02:43:52.205Z,13.98
2023-03-03T02:46:19.274Z,16.90
2023-03-03T02:48:45.750Z,17.60
2023-03-03T02:51:12.438Z,12.90
2023-03-03T02:53:39.350Z,18.02
2023-03-03T02:56:09.317Z,17.25
2023-03-03T02:58:37.361Z,15.05
2023-03-03T03:01:05.237Z,20.33
2023-03-03T03:03:32.436Z,20.73
2023-03-03T03:06:02.270Z,15.43
2023-03-03T03:08:28.824Z,11.98
2023-03-03T03:10:56.904Z,23.13
2023-03-03T03:13:25.965Z,12.93
2023-03-03T03:15:52.680Z,16.30
2023-03-03T03:18:19.265Z,16.77
2023-03-03T03:20:48.371Z,18.98
2023-03-03T03:23:16.857Z,15.52
2023-03-03T03:25:46.390Z,16.60
2023-03-03T03:28:19.039Z,15.80
2023-03-03T03:30:46.246Z,19.15
2023-03-03T03:33:13.358Z,20.75
2023-03-03T03:35:45.390Z,21.70
2023-03-03T03:38:14.241Z,14.02
2023-03-03T03:40:42.472Z,18.50
2023-03-03T03:43:09.533Z,20.65
2023-03-03T03:45:36.177Z,16.10
2023-03-03T03:48:04.079Z,17.02
2023-03-03T03:50:32.057Z,12.88
2023-03-03T03:52:58.761Z,14.82
2023-03-03T03:55:25.513Z,18.75
2023-03-03T03:57:52.468Z,16.63
2023-03-03T04:00:19.432Z,21.73
2023-03-03T04:02:53.300Z,23.60
2023-03-03T04:05:20.221Z,22.40
2023-03-03T04:07:47.284Z,21.80
2023-03-03T04:10:15.671Z,23.08
2023-03-03T04:12:42.296Z,21.98
2023-03-03T04:15:14.349Z,24.73
2023-03-03T04:17:42.080Z,22.77
2023-03-03T04:20:12.641Z,22.52
2023-03-03T04:22:39.490Z,19.85
2023-03-03T04:25:06.892Z,21.30
2023-03-03T04:27:38.748Z,21.95
2023-03-03T04:30:06.793Z,15.00
2023-03-03T04:32:33.967Z,19.83
2023-03-03T04:35:08.154Z,30.63
2023-03-03T04:37:38.834Z,29.75
2023-03-03T04:40:07.905Z,24.00
2023-03-03T04:42:35.570Z,22.30
2023-03-03T04:45:04.306Z,27.23
2023-03-03T04:47:32.459Z,21.92
2023-03-03T04:49:59.269Z,20.40
2023-03-03T04:52:26.505Z,24.27
2023-03-03T04:54:53.065Z,20.90
2023-03-03T04:57:19.752Z,22.58
2023-03-03T04:59:46.424Z,22.52
2023-03-03T05:02:13.154Z,25.50
2023-03-03T05:04:39.823Z,31.40
2023-03-03T05:07:06.446Z,23.13
2023-03-03T05:09:33.084Z,26.65
2023-03-03T05:11:59.802Z,29.75
2023-03-03T05:14:27.025Z,22.98
2023-03-03T05:16:53.925Z,28.48
2023-03-03T05:19:20.474Z,27.58
2023-03-03T05:21:47.056Z,25.73
2023-03-03T05:24:14.347Z,28.63
2023-03-03T05:26:41.486Z,25.75
2023-03-03T05:29:09.093Z,28.45
2023-03-03T05:31:35.664Z,27.75
2023-03-03T05:34:02.261Z,23.88
2023-03-03T05:36:28.874Z,29.67
2023-03-03T05:38:55.780Z,22.60
2023-03-03T05:41:22.420Z,26.38
2023-03-03T05:43:49.073Z,26.60
2023-03-03T05:46:16.833Z,28.85
2023-03-03T05:48:43.468Z,24.00
2023-03-03T05:51:10.006Z,20.30
2023-03-03T05:53:36.642Z,31.35
2023-03-03T05:56:03.441Z,22.50
2023-03-03T05:58:30.276Z,42.47
2023-03-03T06:00:56.905Z,25.48
2023-03-03T06:03:23.486Z,28.58
2023-03-03T06:05:49.986Z,25.35
2023-03-03T06:08:16.559Z,33.45
2023-03-03T06:10:43.092Z,24.90
2023-03-03T06:13:11.625Z,24.60
2023-03-03T06:15:38.660Z,22.88
2023-03-03T06:18:05.317Z,23.65
2023-03-03T06:20:32.995Z,26.52
2023-03-03T06:22:59.486Z,24.40
2023-03-03T06:25:26.050Z,24.83
2023-03-03T06:27:52.662Z,34.40
2023-03-03T06:30:19.342Z,26.60
2023-03-03T06:32:46.107Z,31.08
2023-03-03T06:35:12.844Z,31.35
2023-03-03T06:37:39.416Z,29.42
2023-03-03T06:40:06.893Z,29.85
2023-03-03T06:42:33.429Z,27.23
2023-03-03T06:45:00.238Z,26.65
2023-03-03T06:47:26.741Z,23.88
2023-03-03T06:49:53.376Z,25.27
2023-03-03T06:52:25.454Z,40.75
2023-03-03T06:54:57.923Z,25.58
2023-03-03T06:57:33.266Z,23.85
2023-03-03T07:00:15.472Z,23.92
2023-03-03T07:02:42.061Z,33.92
2023-03-03T07:05:16.021Z,27.90
2023-03-03T07:07:42.829Z,30.88
2023-03-03T07:10:20.474Z,28.85
2023-03-03T07:12:47.053Z,27.02
2023-03-03T07:15:13.676Z,27.48
2023-03-03T07:17:45.459Z,29.50
2023-03-03T07:20:35.156Z,18.95
2023-03-03T07:23:32.941Z,40.83
2023-03-03T07:25:59.502Z,20.40
2023-03-03T07:28:32.824Z,28.55
2023-03-03T07:30:59.906Z,35.03
2023-03-03T07:33:35.021Z,39.53
2023-03-03T07:36:03.924Z,23.33
2023-03-03T07:38:52.858Z,28.20
2023-03-03T07:41:25.752Z,21.30
2023-03-03T07:44:11.331Z,29.58
2023-03-03T07:46:43.508Z,33.28
2023-03-03T07:49:22.883Z,26.83
2023-03-03T07:52:00.144Z,22.23
2023-03-03T07:54:37.570Z,27.50
2023-03-03T07:57:10.087Z,32.97
2023-03-03T07:59:38.729Z,43.05
2023-03-03T08:02:23.787Z,27.80
2023-03-03T08:04:52.441Z,26.58
2023-03-03T08:07:23.343Z,30.75
2023-03-03T08:09:53.898Z,32.45
2023-03-03T08:12:41.866Z,25.25
2023-03-03T08:15:36.481Z,21.00
2023-03-03T08:18:19.119Z,28.42
2023-03-03T08:20:51.188Z,20.55
2023-03-03T08:23:19.621Z,24.73
2023-03-03T08:25:46.951Z,20.63
2023-03-03T08:28:14.321Z,21.92
2023-03-03T08:30:41.708Z,17.70
2023-03-03T08:33:08.758Z,20.73
2023-03-03T08:35:35.304Z,23.13
2023-03-03T08:38:01.981Z,35.03
2023-03-03T08:40:28.965Z,25.83
2023-03-03T08:42:55.581Z,21.08
2023-03-03T08:45:22.141Z,18.73
2023-03-03T08:47:48.739Z,15.85
2023-03-03T08:50:15.824Z,20.63
2023-03-03T08:52:42.611Z,28.33
2023-03-03T08:55:09.348Z,24.77
2023-03-03T08:57:36.119Z,22.77
2023-03-03T09:00:02.982Z,19.48
2023-03-03T09:02:29.536Z,27.33
2023-03-03T09:04:56.198Z,19.00
2023-03-03T09:07:22.782Z,26.50
2023-03-03T09:09:49.321Z,28.65
2023-03-03T09:12:40.446Z,23.73
2023-03-03T09:15:18.875Z,20.38
2023-03-03T09:17:46.638Z,26.65
2023-03-03T09:20:34.997Z,24.15
2023-03-03T09:23:27.750Z,22.85
2023-03-03T09:25:54.480Z,22.10
2023-03-03T09:28:26.312Z,29.08
2023-03-03T09:30:54.493Z,19.55
2023-03-03T09:33:31.303Z,18.27
2023-03-03T09:36:35.517Z,18.98
2023-03-03T09:39:16.220Z,16.05
2023-03-03T09:42:08.787Z,21.35
2023-03-03T09:44:54.192Z,19.75
2023-03-03T09:47:29.855Z,24.63
2023-03-03T09:50:15.632Z,22.27
2023-03-03T09:55:25.582Z,24.48
2023-03-03T09:58:11.403Z,24.27
2023-03-03T10:00:49.915Z,26.83
2023-03-03T10:03:34.007Z,16.80
2023-03-03T10:06:01.607Z,19.67
2023-03-03T10:08:42.547Z,16.52
2023-03-03T10:11:09.114Z,18.48
2023-03-03T10:13:47.465Z,18.00
2023-03-03T10:16:54.245Z,15.07
2023-03-03T10:19:34.157Z,23.90
2023-03-03T10:22:28.755Z,18.23
2023-03-03T10:25:04.976Z,15.30
2023-03-03T10:27:59.106Z,10.63
2023-03-03T10:30:54.773Z,16.65
2023-03-03T10:33:48.059Z,13.43
2023-03-03T10:36:34.413Z,12.57
2023-03-03T10:39:34.474Z,16.50
2023-03-03T10:42:20.950Z,12.27
2023-03-03T10:45:07.858Z,13.98
2023-03-03T10:48:06.239Z,16.40
2023-03-03T10:50:51.958Z,16.02
2023-03-03T10:53:22.064Z,17.80
2023-03-03T10:55:51.783Z,9.23
2023-03-03T10:58:33.891Z,11.85
2023-03-03T11:01:48.529Z,12.52
2023-03-03T11:04:41.346Z,12.85
2023-03-03T11:07:17.387Z,10.70
2023-03-03T11:10:05.908Z,14.52
2023-03-03T11:12:50.753Z,12.32
2023-03-03T11:15:36.420Z,15.93
2023-03-03T11:18:23.821Z,13.60
2023-03-03T11:21:13.161Z,15.48
2023-03-03T11:23:39.665Z,11.55
2023-03-03T11:26:23.857Z,15.15
2023-03-03T11:29:00.769Z,11.43
2023-03-03T11:31:45.666Z,11.30
2023-03-03T11:34:48.538Z,17.63
2023-03-03T11:37:28.040Z,9.32
2023-03-03T11:40:01.680Z,15.88
2023-03-03T11:42:33.881Z,17.73
2023-03-03T11:45:17.768Z,18.38
2023-03-03T11:47:56.640Z,17.75
2023-03-03T11:50:35.406Z,11.35
2023-03-03T11:53:37.468Z,19.40
2023-03-03T11:56:10.817Z,13.25
2023-03-03T11:59:14.769Z,14.43
2023-03-03T12:01:57.313Z,13.32
2023-03-03T12:04:35.812Z,15.10
2023-03-03T12:07:22.838Z,19.65
2023-03-03T12:10:02.330Z,15.63
2023-03-03T12:12:42.534Z,18.15
2023-03-03T12:15:28.603Z,18.00
2023-03-03T12:18:12.815Z,16.02
2023-03-03T12:21:18.130Z,19.55
2023-03-03T12:24:23.558Z,19.58
2023-03-03T12:27:22.356Z,14.18
2023-03-03T12:30:14.898Z,14.20
2023-03-03T12:32:56.451Z,15.52
2023-03-03T12:35:36.762Z,14.25
2023-03-03T12:38:15.298Z,15.88
2023-03-03T12:40:57.028Z,18.30
2023-03-03T12:43:42.939Z,15.27
2023-03-03T12:48:56.210Z,19.88
2023-03-03T12:51:32.027Z,12.45
2023-03-03T12:54:17.734Z,13.57
2023-03-03T12:57:00.010Z,14.63
2023-03-03T12:59:41.974Z,14.48
2023-03-03T13:02:26.747Z,18.55
2023-03-03T13:05:18.960Z,14.35
2023-03-03T13:08:08.835Z,15.65
2023-03-03T13:10:43.026Z,14.40
2023-03-03T13:13:21.724Z,7.75
2023-03-03T13:16:06.132Z,15.40
2023-03-03T13:18:56.751Z,19.40
2023-03-03T13:21:40.417Z,12.90
2023-03-03T13:24:21.341Z,14.68
2023-03-03T13:26:53.286Z,13.88
2023-03-03T13:29:23.204Z,14.80
2023-03-03T13:31:54.620Z,15.98
2023-03-03T13:34:34.928Z,12.82
2023-03-03T13:37:08.224Z,17.42
2023-03-03T13:39:42.978Z,18.67
2023-03-03T13:42:54.340Z,16.75
2023-03-03T13:45:31.166Z,18.00
2023-03-03T13:48:07.046Z,18.33
2023-03-03T13:50:44.791Z,13.57
2023-03-03T13:53:30.626Z,18.48
2023-03-03T13:58:52.462Z,17.75
2023-03-03T14:01:27.492Z,12.98
2023-03-03T14:04:05.931Z,15.00
2023-03-03T14:06:33.021Z,12.98
2023-03-03T14:09:11.405Z,16.40
2023-03-03T14:11:47.432Z,18.38
2023-03-03T14:14:19.742Z,19.10
2023-03-03T14:16:52.481Z,15.60
2023-03-03T14:19:25.990Z,18.40
2023-03-03T14:22:04.095Z,17.42
2023-03-03T14:24:31.226Z,13.13
2023-03-03T14:27:00.065Z,17.95
2023-03-03T14:29:26.911Z,13.23
2023-03-03T14:31:55.351Z,15.65
2023-03-03T14:34:40.919Z,18.70
2023-03-03T14:37:23.435Z,11.60
2023-03-03T14:40:02.086Z,17.73
2023-03-03T14:42:51.911Z,14.07
2023-03-03T14:45:31.240Z,15.32
2023-03-03T14:47:59.521Z,20.63
2023-03-03T14:50:33.307Z,18.70
2023-03-03T14:53:10.307Z,14.32
2023-03-03T14:55:40.331Z,12.77
2023-03-03T14:58:29.211Z,19.70
2023-03-03T15:01:15.414Z,14.52
2023-03-03T15:04:09.925Z,14.90
2023-03-03T15:06:45.316Z,11.85
2023-03-03T15:09:24.015Z,18.27
2023-03-03T15:11:52.491Z,13.20
2023-03-03T15:14:23.992Z,14.68
2023-03-03T15:16:50.666Z,17.92
2023-03-03T15:19:39.406Z,14.40
2023-03-03T15:22:20.003Z,13.68
2023-03-03T15:25:21.150Z,12.90
2023-03-03T15:28:34.664Z,16.52
2023-03-03T15:31:06.853Z,12.40
2023-03-03T15:33:52.088Z,14.10
2023-03-03T15:36:43.791Z,16.88
2023-03-03T15:39:39.558Z,15.07
2023-03-03T15:42:14.903Z,12.90
2023-03-03T15:45:08.386Z,17.80
2023-03-03T15:47:47.085Z,13.75
2023-03-03T15:50:34.157Z,14.60
2023-03-03T15:53:38.154Z,14.48
2023-03-03T15:56:14.443Z,13.63
2023-03-03T15:58:44.034Z,16.60
2023-03-03T16:01:29.717Z,24.48
2023-03-03T16:04:00.815Z,11.93
2023-03-03T16:06:48.092Z,18.42
2023-03-03T16:09:14.634Z,18.63
2023-03-03T16:11:49.684Z,15.85
2023-03-03T16:14:55.200Z,14.73
2023-03-03T16:18:08.626Z,10.73
2023-03-03T16:20:55.677Z,16.05
2023-03-03T16:23:25.136Z,14.15
2023-03-03T16:25:58.138Z,15.25
2023-03-03T16:29:14.918Z,20.35
2023-03-03T16:31:54.323Z,12.95
2023-03-03T16:34:33.515Z,13.70
2023-03-03T16:37:23.097Z,16.85
2023-03-03T16:40:00.517Z,15.02
2023-03-03T16:42:29.736Z,19.17
2023-03-03T16:45:21.869Z,13.80
2023-03-03T16:47:58.047Z,21.30
2023-03-03T16:50:27.562Z,20.38
2023-03-03T16:53:01.225Z,11.90
2023-03-03T16:55:49.307Z,20.15
2023-03-03T16:58:53.304Z,18.50
2023-03-03T17:01:58.575Z,21.45
2023-03-03T17:04:47.320Z,15.23
2023-03-03T17:07:26.010Z,20.30
2023-03-03T17:10:16.598Z,18.00
2023-03-03T17:13:05.506Z,16.25
2023-03-03T17:15:57.868Z,12.85
2023-03-03T17:19:01.457Z,15.60
2023-03-03T17:21:40.035Z,19.33
2023-03-03T17:24:12.694Z,14.18
2023-03-03T17:26:58.490Z,15.15
2023-03-03T17:29:39.978Z,20.83
2023-03-03T17:32:16.298Z,21.13
2023-03-03T17:35:10.577Z,18.02
2023-03-03T17:37:58.333Z,17.83
2023-03-03T17:40:48.287Z,19.77
2023-03-03T17:43:23.988Z,24.42
2023-03-03T17:45:55.830Z,21.95
2023-03-03T17:48:31.677Z,32.28
2023-03-03T17:51:13.415Z,31.65
2023-03-03T17:54:00.127Z,34.75
2023-03-03T17:56:38.481Z,27.17
2023-03-03T17:59:20.635Z,23.23
2023-03-03T18:02:38.513Z,24.35
2023-03-03T18:05:38.291Z,28.85
2023-03-03T18:08:27.995Z,26.67
2023-03-03T18:11:09.842Z,23.92
2023-03-03T18:14:02.700Z,21.17
2023-03-03T18:17:04.656Z,25.55
2023-03-03T18:20:01.449Z,25.98
2023-03-03T18:22:41.047Z,23.00
2023-03-03T18:25:11.919Z,22.80
2023-03-03T18:28:00.997Z,26.92
2023-03-03T18:30:48.538Z,22.98
2023-03-03T18:33:16.802Z,24.48
2023-03-03T18:35:46.083Z,20.80
2023-03-03T18:38:15.916Z,27.65
2023-03-03T18:41:00.782Z,29.23
2023-03-03T18:43:40.791Z,17.98
2023-03-03T18:46:30.768Z,25.05
2023-03-03T18:49:05.420Z,29.27
2023-03-03T18:51:35.453Z,23.17
2023-03-03T18:54:16.889Z,23.08
2023-03-03T18:57:12.225Z,22.65
2023-03-03T18:59:41.280Z,22.00
2023-03-03T19:02:37.730Z,19.02
2023-03-03T19:05:18.933Z,19.45
2023-03-03T19:07:52.163Z,24.45
2023-03-03T19:10:18.703Z,25.17
2023-03-03T19:12:52.483Z,23.48
2023-03-03T19:15:31.414Z,20.80
2023-03-03T19:18:16.752Z,18.70
2023-03-03T19:21:02.983Z,29.27
2023-03-03T19:23:52.190Z,26.15
2023-03-03T19:26:24.871Z,17.85
2023-03-03T19:28:58.108Z,21.30
2023-03-03T19:31:49.763Z,29.65
2023-03-03T19:34:39.950Z,19.58
2023-03-03T19:37:32.039Z,29.13
2023-03-03T19:40:27.617Z,16.45
2023-03-03T19:43:12.613Z,16.38
2023-03-03T19:46:04.391Z,18.97
2023-03-03T19:48:52.621Z,17.88
2023-03-03T19:51:49.356Z,14.52
2023-03-03T19:54:34.376Z,19.25
2023-03-03T19:57:04.250Z,20.40
2023-03-03T19:59:49.328Z,14.68
2023-03-03T20:02:42.274Z,17.98
2023-03-03T20:05:27.061Z,18.65
2023-03-03T20:08:35.534Z,16.95
2023-03-03T20:11:45.846Z,13.85
2023-03-03T20:14:29.224Z,15.38
2023-03-03T20:17:11.973Z,13.30
2023-03-03T20:20:03.553Z,7.68
2023-03-03T20:22:51.790Z,12.18
2023-03-03T20:25:36.118Z,8.77
2023-03-03T20:28:24.477Z,4.75
2023-03-03T20:31:03.436Z,7.15
2023-03-03T20:33:44.139Z,5.32
2023-03-03T20:36:23.371Z,8.25
2023-03-03T20:39:08.159Z,8.98
2023-03-03T20:41:41.648Z,7.00
2023-03-03T20:44:34.197Z,2.53
2023-03-03T20:47:15.318Z,4.63
2023-03-03T20:50:03.807Z,6.25
2023-03-03T20:52:58.676Z,2.53
2023-03-03T20:55:42.473Z,3.67
2023-03-03T20:58:31.995Z,4.03
2023-03-03T21:01:04.406Z,2.92
2023-03-03T21:03:39.845Z,5.57
2023-03-03T21:06:09.416Z,5.00
2023-03-03T21:08:56.148Z,4.25
2023-03-03T21:11:31.656Z,3.17
2023-03-03T21:16:25.877Z,7.80
2023-03-03T21:19:02.987Z,6.78
2023-03-03T21:21:41.343Z,1.75
2023-03-03T21:24:19.441Z,2.15
2023-03-03T21:26:57.823Z,5.28
2023-03-03T21:29:31.456Z,3.03
2023-03-03T21:32:02.942Z,2.58
2023-03-03T21:34:34.858Z,5.20
2023-03-03T21:37:10.094Z,13.02
2023-03-03T21:39:41.713Z,3.72
2023-03-03T21:42:18.644Z,7.45
2023-03-03T21:44:49.519Z,6.55
2023-03-03T21:47:19.682Z,4.15
2023-03-03T21:49:51.565Z,4.00
2023-03-03T21:52:20.075Z,3.42
2023-03-03T21:54:48.602Z,5.85
2023-03-03T21:57:15.979Z,2.83
2023-03-03T21:59:42.612Z,4.38
2023-03-03T22:02:10.192Z,2.47
2023-03-03T22:04:38.777Z,3.20
2023-03-03T22:07:05.884Z,8.75
2023-03-03T22:09:32.385Z,4.90
2023-03-03T22:11:59.093Z,5.82
2023-03-03T22:14:25.868Z,6.90
2023-03-03T22:16:52.609Z,3.53
2023-03-03T22:19:19.151Z,3.00
2023-03-03T22:21:46.607Z,4.97
2023-03-03T22:24:13.434Z,11.10
2023-03-03T22:26:39.992Z,5.88
2023-03-03T22:29:06.531Z,5.38
2023-03-03T22:31:33.503Z,5.78
2023-03-03T22:34:00.586Z,8.00
2023-03-03T22:36:27.243Z,7.00
2023-03-03T22:38:53.794Z,6.93
2023-03-03T22:41:20.488Z,3.75
2023-03-03T22:43:48.013Z,12.30
2023-03-03T22:46:15.102Z,3.10
2023-03-03T22:48:41.794Z,7.88
2023-03-03T22:51:08.325Z,13.07
2023-03-03T22:53:34.842Z,7.18
2023-03-03T22:56:01.441Z,11.13
2023-03-03T22:58:29.254Z,7.40
2023-03-03T23:00:55.854Z,8.05
2023-03-03T23:03:22.791Z,8.10
2023-03-03T23:05:51.586Z,7.30
2023-03-03T23:08:20.163Z,7.05
2023-03-03T23:10:47.440Z,3.38
2023-03-03T23:13:14.314Z,14.10
2023-03-03T23:15:41.063Z,2.83
2023-03-03T23:18:07.929Z,7.30
2023-03-03T23:20:35.366Z,6.75
2023-03-03T23:23:02.494Z,8.90
2023-03-03T23:25:29.728Z,11.70
2023-03-03T23:27:56.926Z,7.15
2023-03-03T23:30:23.624Z,5.43
2023-03-03T23:32:50.857Z,6.50
2023-03-03T23:35:18.297Z,11.35
2023-03-03T23:37:45.841Z,9.70
2023-03-03T23:40:14.507Z,9.52
2023-03-03T23:42:41.169Z,4.03
2023-03-03T23:45:09.176Z,2.45
2023-03-03T23:47:36.148Z,12.45
2023-03-03T23:50:02.926Z,3.92
2023-03-03T23:52:29.419Z,3.20
2023-03-03T23:54:55.982Z,8.80
2023-03-03T23:57:22.492Z,3.38
2023-03-03T23:59:49.706Z,9.48
